PH-0038 weather

BDO Corporate Center Heliport
Pasig, Philippines

Public forecast

Using degrees Celsius for public forecast. Weather courtesy of forecast.io.

METAR (pilot weather report)

Closest report is Ninoy Aquino International Airport, 5.2 nm (9.6 km) SSW. Retrieved 2019/07/17 11:00 UTC (59 minutes ago):

RPLL 171100Z 23006KT 9999 SCT022 OVC090 27/25 Q1002 NOSIG RMK A2959

TAF (pilot weather forecast)

Closest forecast is Ninoy Aquino International Airport, 5.2 nm (9.6 km) SSW. Retrieved 2019/07/17 06:00 UTC (6 hours ago):

TAF RPLL 170500Z 1706/1812 24010KT 9000 -RA SCT022 OVC090 TX29/1706Z TN24/1721Z TEMPO 1706/1712 26015KT 6000 RA SCT022 OVC080 TEMPO 1712/1718 25016KT 7000 RA SCT020 OVC080